Farrell, Pennsylvania
Current Conditions -  °F | °C
As of 7:51 PM on Thursday 18 Dec 2014 (Local Time) from KYNG Reporting Station
Light Snow Light Snow  
Wind Chill: 20°   Ceiling: 1300
Heat Index: 28°   Visibility: 9mi
Dew Point: 24°   Wind: 8mph
Humidity: 85%   Direction: 250°WSW
Pressure: 30.13"   Gusts: NA
Location:  41.22°N, 80.51°W
Report Text: KYNG 190051Z 25007KT 9SM -SN OVC013 M02/M04 A3013 RMK AO2 SLP219 P0000 T10221044
Loading
Personal Weather Stations






























Interactive Weather Map New forecast layout! Learn more

10-Day Weather Forecast

Advertisements
Track Severe Weather on mobile